sensor_id;sensor_type;location;lat;lon;timestamp;P1;durP1;ratioP1;P2;durP2;ratioP2
1296;SDS011;641;48.492;9.184;2024-01-11T00:00:26;47.13;;;22.93;;
1296;SDS011;641;48.492;9.184;2024-01-11T00:02:51;51.27;;;19.80;;
1296;SDS011;641;48.492;9.184;2024-01-11T00:05:17;46.77;;;20.80;;
1296;SDS011;641;48.492;9.184;2024-01-11T00:07:42;45.93;;;20.50;;
1296;SDS011;641;48.492;9.184;2024-01-11T00:10:08;42.83;;;20.03;;
1296;SDS011;641;48.492;9.184;2024-01-11T00:12:34;41.90;;;21.57;;
1296;SDS011;641;48.492;9.184;2024-01-11T00:14:59;58.30;;;25.50;;
1296;SDS011;641;48.492;9.184;2024-01-11T00:17:25;49.13;;;22.90;;
1296;SDS011;641;48.492;9.184;2024-01-11T00:19:51;49.30;;;20.10;;
1296;SDS011;641;48.492;9.184;2024-01-11T00:22:17;45.75;;;20.40;;
1296;SDS011;641;48.492;9.184;2024-01-11T00:24:42;44.83;;;19.27;;
1296;SDS011;641;48.492;9.184;2024-01-11T00:27:08;35.73;;;19.30;;
1296;SDS011;641;48.492;9.184;2024-01-11T00:29:34;48.93;;;18.77;;
1296;SDS011;641;48.492;9.184;2024-01-11T00:32:02;44.90;;;19.40;;
1296;SDS011;641;48.492;9.184;2024-01-11T00:34:27;51.60;;;22.40;;
1296;SDS011;641;48.492;9.184;2024-01-11T00:36:53;46.67;;;22.40;;
1296;SDS011;641;48.492;9.184;2024-01-11T00:39:19;50.60;;;22.23;;
1296;SDS011;641;48.492;9.184;2024-01-11T00:41:44;45.10;;;21.33;;
1296;SDS011;641;48.492;9.184;2024-01-11T00:44:10;46.23;;;20.97;;
1296;SDS011;641;48.492;9.184;2024-01-11T00:46:35;49.87;;;19.73;;
1296;SDS011;641;48.492;9.184;2024-01-11T00:49:03;44.13;;;18.38;;
1296;SDS011;641;48.492;9.184;2024-01-11T00:51:28;53.97;;;22.77;;
1296;SDS011;641;48.492;9.184;2024-01-11T00:53:54;46.30;;;21.27;;
1296;SDS011;641;48.492;9.184;2024-01-11T00:56:20;49.97;;;22.83;;
1296;SDS011;641;48.492;9.184;2024-01-11T00:58:46;48.72;;;23.02;;
1296;SDS011;641;48.492;9.184;2024-01-11T01:01:12;44.00;;;22.07;;
1296;SDS011;641;48.492;9.184;2024-01-11T01:03:38;55.85;;;24.67;;
1296;SDS011;641;48.492;9.184;2024-01-11T01:06:03;55.70;;;21.77;;
1296;SDS011;641;48.492;9.184;2024-01-11T01:08:29;45.60;;;19.87;;
1296;SDS011;641;48.492;9.184;2024-01-11T01:10:55;43.30;;;20.63;;
1296;SDS011;641;48.492;9.184;2024-01-11T01:13:21;48.10;;;20.17;;
1296;SDS011;641;48.492;9.184;2024-01-11T01:15:46;45.40;;;19.07;;
1296;SDS011;641;48.492;9.184;2024-01-11T01:18:12;43.03;;;20.20;;
1296;SDS011;641;48.492;9.184;2024-01-11T01:20:37;46.43;;;20.17;;
1296;SDS011;641;48.492;9.184;2024-01-11T01:23:03;47.83;;;21.67;;
1296;SDS011;641;48.492;9.184;2024-01-11T01:25:28;46.40;;;21.67;;
1296;SDS011;641;48.492;9.184;2024-01-11T01:27:54;47.63;;;20.50;;
1296;SDS011;641;48.492;9.184;2024-01-11T01:30:20;43.97;;;23.15;;
1296;SDS011;641;48.492;9.184;2024-01-11T01:32:46;40.20;;;19.47;;
1296;SDS011;641;48.492;9.184;2024-01-11T01:35:12;44.67;;;21.57;;
1296;SDS011;641;48.492;9.184;2024-01-11T01:37:37;47.43;;;20.87;;
1296;SDS011;641;48.492;9.184;2024-01-11T01:40:03;47.87;;;22.03;;
1296;SDS011;641;48.492;9.184;2024-01-11T01:42:29;46.60;;;23.70;;
1296;SDS011;641;48.492;9.184;2024-01-11T01:44:54;49.20;;;22.67;;
1296;SDS011;641;48.492;9.184;2024-01-11T01:47:21;44.07;;;20.07;;
1296;SDS011;641;48.492;9.184;2024-01-11T01:49:46;41.88;;;19.65;;
1296;SDS011;641;48.492;9.184;2024-01-11T01:52:14;45.00;;;21.08;;
1296;SDS011;641;48.492;9.184;2024-01-11T01:54:40;60.00;;;26.02;;
1296;SDS011;641;48.492;9.184;2024-01-11T01:57:05;40.60;;;19.53;;
1296;SDS011;641;48.492;9.184;2024-01-11T01:59:33;46.80;;;21.05;;
1296;SDS011;641;48.492;9.184;2024-01-11T02:01:59;45.77;;;20.67;;
1296;SDS011;641;48.492;9.184;2024-01-11T02:04:25;42.13;;;20.17;;
1296;SDS011;641;48.492;9.184;2024-01-11T02:06:51;57.00;;;25.08;;
1296;SDS011;641;48.492;9.184;2024-01-11T02:09:18;39.72;;;20.83;;
1296;SDS011;641;48.492;9.184;2024-01-11T02:11:44;47.20;;;21.27;;
1296;SDS011;641;48.492;9.184;2024-01-11T02:14:10;48.45;;;22.10;;
1296;SDS011;641;48.492;9.184;2024-01-11T02:16:36;42.07;;;20.80;;
1296;SDS011;641;48.492;9.184;2024-01-11T02:19:02;48.97;;;23.20;;
1296;SDS011;641;48.492;9.184;2024-01-11T02:21:29;48.33;;;20.63;;
1296;SDS011;641;48.492;9.184;2024-01-11T02:24:04;47.55;;;21.95;;
1296;SDS011;641;48.492;9.184;2024-01-11T02:26:31;39.53;;;20.20;;
1296;SDS011;641;48.492;9.184;2024-01-11T02:28:57;43.65;;;21.02;;
1296;SDS011;641;48.492;9.184;2024-01-11T02:31:22;44.00;;;19.97;;
1296;SDS011;641;48.492;9.184;2024-01-11T02:33:49;42.55;;;20.38;;
1296;SDS011;641;48.492;9.184;2024-01-11T02:36:15;51.38;;;23.13;;
1296;SDS011;641;48.492;9.184;2024-01-11T02:38:42;38.15;;;20.35;;
1296;SDS011;641;48.492;9.184;2024-01-11T02:41:08;37.70;;;18.80;;
1296;SDS011;641;48.492;9.184;2024-01-11T02:43:34;44.50;;;20.10;;
1296;SDS011;641;48.492;9.184;2024-01-11T02:46:02;37.83;;;18.50;;
1296;SDS011;641;48.492;9.184;2024-01-11T02:48:31;49.83;;;21.10;;
1296;SDS011;641;48.492;9.184;2024-01-11T02:50:57;42.58;;;19.88;;
1296;SDS011;641;48.492;9.184;2024-01-11T02:53:23;41.20;;;19.10;;
1296;SDS011;641;48.492;9.184;2024-01-11T02:55:49;40.80;;;20.30;;
1296;SDS011;641;48.492;9.184;2024-01-11T02:58:15;41.55;;;19.35;;
1296;SDS011;641;48.492;9.184;2024-01-11T03:00:41;47.17;;;21.90;;
1296;SDS011;641;48.492;9.184;2024-01-11T03:03:06;45.40;;;22.30;;
1296;SDS011;641;48.492;9.184;2024-01-11T03:05:32;49.03;;;19.60;;
1296;SDS011;641;48.492;9.184;2024-01-11T03:07:58;43.43;;;19.93;;
1296;SDS011;641;48.492;9.184;2024-01-11T03:10:23;46.27;;;20.73;;
1296;SDS011;641;48.492;9.184;2024-01-11T03:12:49;42.20;;;18.43;;
1296;SDS011;641;48.492;9.184;2024-01-11T03:15:14;37.43;;;18.03;;
1296;SDS011;641;48.492;9.184;2024-01-11T03:17:40;53.17;;;22.60;;
1296;SDS011;641;48.492;9.184;2024-01-11T03:20:06;43.20;;;18.40;;
1296;SDS011;641;48.492;9.184;2024-01-11T03:22:32;41.33;;;18.45;;
1296;SDS011;641;48.492;9.184;2024-01-11T03:24:59;46.38;;;18.17;;
1296;SDS011;641;48.492;9.184;2024-01-11T03:27:25;34.57;;;16.47;;
1296;SDS011;641;48.492;9.184;2024-01-11T03:29:50;41.43;;;20.47;;
1296;SDS011;641;48.492;9.184;2024-01-11T03:32:16;43.60;;;21.17;;
1296;SDS011;641;48.492;9.184;2024-01-11T03:34:42;35.90;;;17.40;;
1296;SDS011;641;48.492;9.184;2024-01-11T03:37:07;41.30;;;18.53;;
1296;SDS011;641;48.492;9.184;2024-01-11T03:39:34;38.47;;;18.03;;
1296;SDS011;641;48.492;9.184;2024-01-11T03:42:00;39.00;;;20.42;;
1296;SDS011;641;48.492;9.184;2024-01-11T03:44:25;40.00;;;19.17;;
1296;SDS011;641;48.492;9.184;2024-01-11T03:46:51;45.97;;;20.30;;
1296;SDS011;641;48.492;9.184;2024-01-11T03:49:17;38.03;;;18.60;;
1296;SDS011;641;48.492;9.184;2024-01-11T03:51:42;41.33;;;19.97;;
1296;SDS011;641;48.492;9.184;2024-01-11T03:54:09;47.35;;;20.00;;
1296;SDS011;641;48.492;9.184;2024-01-11T03:56:37;39.20;;;17.70;;
1296;SDS011;641;48.492;9.184;2024-01-11T03:59:04;41.25;;;19.85;;
1296;SDS011;641;48.492;9.184;2024-01-11T04:01:30;45.95;;;20.55;;
1296;SDS011;641;48.492;9.184;2024-01-11T04:03:56;44.07;;;18.87;;
1296;SDS011;641;48.492;9.184;2024-01-11T04:06:22;45.13;;;21.47;;
1296;SDS011;641;48.492;9.184;2024-01-11T04:08:49;47.25;;;20.60;;
1296;SDS011;641;48.492;9.184;2024-01-11T04:11:15;47.58;;;19.77;;
1296;SDS011;641;48.492;9.184;2024-01-11T04:13:41;37.28;;;18.83;;
1296;SDS011;641;48.492;9.184;2024-01-11T04:16:06;39.67;;;20.50;;
1296;SDS011;641;48.492;9.184;2024-01-11T04:18:32;40.43;;;18.27;;
1296;SDS011;641;48.492;9.184;2024-01-11T04:20:58;45.17;;;19.07;;
1296;SDS011;641;48.492;9.184;2024-01-11T04:23:23;35.73;;;16.60;;
1296;SDS011;641;48.492;9.184;2024-01-11T04:25:49;38.67;;;18.77;;
1296;SDS011;641;48.492;9.184;2024-01-11T04:28:18;40.08;;;19.52;;
1296;SDS011;641;48.492;9.184;2024-01-11T04:30:43;39.10;;;18.83;;
1296;SDS011;641;48.492;9.184;2024-01-11T04:33:09;36.87;;;19.83;;
1296;SDS011;641;48.492;9.184;2024-01-11T04:35:35;42.87;;;19.93;;
1296;SDS011;641;48.492;9.184;2024-01-11T04:38:01;41.53;;;17.02;;
1296;SDS011;641;48.492;9.184;2024-01-11T04:40:27;39.63;;;19.00;;
1296;SDS011;641;48.492;9.184;2024-01-11T04:42:52;50.13;;;19.33;;
1296;SDS011;641;48.492;9.184;2024-01-11T04:45:18;43.83;;;19.67;;
1296;SDS011;641;48.492;9.184;2024-01-11T04:47:43;41.40;;;20.13;;
1296;SDS011;641;48.492;9.184;2024-01-11T04:50:09;49.90;;;22.07;;
1296;SDS011;641;48.492;9.184;2024-01-11T04:52:35;49.60;;;22.13;;
1296;SDS011;641;48.492;9.184;2024-01-11T04:55:01;45.10;;;20.80;;
1296;SDS011;641;48.492;9.184;2024-01-11T04:57:27;43.85;;;18.40;;
1296;SDS011;641;48.492;9.184;2024-01-11T04:59:52;41.97;;;20.80;;
1296;SDS011;641;48.492;9.184;2024-01-11T05:02:20;42.77;;;18.90;;
1296;SDS011;641;48.492;9.184;2024-01-11T05:04:46;40.42;;;19.55;;
1296;SDS011;641;48.492;9.184;2024-01-11T05:07:12;44.10;;;18.58;;
1296;SDS011;641;48.492;9.184;2024-01-11T05:09:38;41.13;;;17.07;;
1296;SDS011;641;48.492;9.184;2024-01-11T05:12:04;41.97;;;18.60;;
1296;SDS011;641;48.492;9.184;2024-01-11T05:14:29;40.70;;;17.33;;
1296;SDS011;641;48.492;9.184;2024-01-11T05:16:55;41.53;;;20.47;;
1296;SDS011;641;48.492;9.184;2024-01-11T05:19:21;41.83;;;19.07;;
1296;SDS011;641;48.492;9.184;2024-01-11T05:21:46;40.80;;;19.83;;
1296;SDS011;641;48.492;9.184;2024-01-11T05:24:12;40.00;;;18.30;;
1296;SDS011;641;48.492;9.184;2024-01-11T05:26:37;46.87;;;19.47;;
1296;SDS011;641;48.492;9.184;2024-01-11T05:29:03;42.00;;;19.87;;
1296;SDS011;641;48.492;9.184;2024-01-11T05:31:29;42.63;;;20.23;;
1296;SDS011;641;48.492;9.184;2024-01-11T05:33:55;40.50;;;20.83;;
1296;SDS011;641;48.492;9.184;2024-01-11T05:36:20;35.57;;;18.47;;
1296;SDS011;641;48.492;9.184;2024-01-11T05:38:46;43.97;;;18.30;;
1296;SDS011;641;48.492;9.184;2024-01-11T05:41:12;40.80;;;19.53;;
1296;SDS011;641;48.492;9.184;2024-01-11T05:43:39;40.10;;;18.43;;
1296;SDS011;641;48.492;9.184;2024-01-11T05:46:05;35.72;;;16.98;;
1296;SDS011;641;48.492;9.184;2024-01-11T05:48:32;36.15;;;17.20;;
1296;SDS011;641;48.492;9.184;2024-01-11T05:50:57;42.00;;;18.43;;
1296;SDS011;641;48.492;9.184;2024-01-11T05:53:23;40.23;;;19.60;;
1296;SDS011;641;48.492;9.184;2024-01-11T05:55:49;37.63;;;15.40;;
1296;SDS011;641;48.492;9.184;2024-01-11T05:58:15;39.83;;;17.80;;
1296;SDS011;641;48.492;9.184;2024-01-11T06:00:41;36.53;;;16.20;;
1296;SDS011;641;48.492;9.184;2024-01-11T06:03:07;41.07;;;18.80;;
1296;SDS011;641;48.492;9.184;2024-01-11T06:05:32;35.23;;;16.40;;
1296;SDS011;641;48.492;9.184;2024-01-11T06:07:58;48.50;;;21.37;;
1296;SDS011;641;48.492;9.184;2024-01-11T06:10:24;39.77;;;18.60;;
1296;SDS011;641;48.492;9.184;2024-01-11T06:12:49;41.43;;;19.00;;
1296;SDS011;641;48.492;9.184;2024-01-11T06:15:15;41.37;;;19.20;;
1296;SDS011;641;48.492;9.184;2024-01-11T06:17:41;36.07;;;15.67;;
1296;SDS011;641;48.492;9.184;2024-01-11T06:20:06;37.63;;;18.53;;
1296;SDS011;641;48.492;9.184;2024-01-11T06:22:32;39.97;;;16.95;;
1296;SDS011;641;48.492;9.184;2024-01-11T06:24:58;36.60;;;18.13;;
1296;SDS011;641;48.492;9.184;2024-01-11T06:27:24;41.30;;;17.67;;
1296;SDS011;641;48.492;9.184;2024-01-11T06:29:50;36.17;;;16.87;;
1296;SDS011;641;48.492;9.184;2024-01-11T06:32:15;45.53;;;19.77;;
1296;SDS011;641;48.492;9.184;2024-01-11T06:34:41;32.73;;;17.33;;
1296;SDS011;641;48.492;9.184;2024-01-11T06:37:10;42.88;;;18.30;;
1296;SDS011;641;48.492;9.184;2024-01-11T06:39:36;47.50;;;19.60;;
1296;SDS011;641;48.492;9.184;2024-01-11T06:42:02;41.53;;;19.80;;
1296;SDS011;641;48.492;9.184;2024-01-11T06:44:27;43.43;;;19.70;;
1296;SDS011;641;48.492;9.184;2024-01-11T06:46:53;26.17;;;14.47;;
1296;SDS011;641;48.492;9.184;2024-01-11T06:49:18;38.10;;;18.83;;
1296;SDS011;641;48.492;9.184;2024-01-11T06:51:44;33.10;;;16.07;;
1296;SDS011;641;48.492;9.184;2024-01-11T06:54:09;50.77;;;19.13;;
1296;SDS011;641;48.492;9.184;2024-01-11T06:56:35;31.87;;;14.23;;
1296;SDS011;641;48.492;9.184;2024-01-11T06:59:01;36.47;;;17.80;;
1296;SDS011;641;48.492;9.184;2024-01-11T07:01:26;36.80;;;15.37;;
1296;SDS011;641;48.492;9.184;2024-01-11T07:03:52;42.87;;;18.73;;
1296;SDS011;641;48.492;9.184;2024-01-11T07:06:17;44.23;;;18.80;;
1296;SDS011;641;48.492;9.184;2024-01-11T07:08:43;40.13;;;15.90;;
1296;SDS011;641;48.492;9.184;2024-01-11T07:11:09;47.60;;;19.73;;
1296;SDS011;641;48.492;9.184;2024-01-11T07:13:34;46.23;;;18.40;;
1296;SDS011;641;48.492;9.184;2024-01-11T07:16:00;47.77;;;19.67;;
1296;SDS011;641;48.492;9.184;2024-01-11T07:18:28;38.97;;;16.52;;
1296;SDS011;641;48.492;9.184;2024-01-11T07:20:55;54.47;;;20.50;;
1296;SDS011;641;48.492;9.184;2024-01-11T07:23:22;50.03;;;19.42;;
1296;SDS011;641;48.492;9.184;2024-01-11T07:25:49;53.17;;;18.67;;
1296;SDS011;641;48.492;9.184;2024-01-11T07:28:15;44.90;;;18.25;;
1296;SDS011;641;48.492;9.184;2024-01-11T07:30:42;41.00;;;20.88;;
1296;SDS011;641;48.492;9.184;2024-01-11T07:33:08;45.37;;;22.60;;
1296;SDS011;641;48.492;9.184;2024-01-11T07:35:34;43.13;;;21.23;;
1296;SDS011;641;48.492;9.184;2024-01-11T07:37:59;56.53;;;26.97;;
1296;SDS011;641;48.492;9.184;2024-01-11T07:40:25;42.88;;;20.40;;
1296;SDS011;641;48.492;9.184;2024-01-11T07:42:51;45.20;;;21.50;;
1296;SDS011;641;48.492;9.184;2024-01-11T07:45:17;32.07;;;16.10;;
1296;SDS011;641;48.492;9.184;2024-01-11T07:47:44;42.17;;;19.30;;
1296;SDS011;641;48.492;9.184;2024-01-11T07:50:09;40.77;;;17.90;;
1296;SDS011;641;48.492;9.184;2024-01-11T07:52:35;38.23;;;21.53;;
1296;SDS011;641;48.492;9.184;2024-01-11T07:55:02;38.88;;;17.23;;
1296;SDS011;641;48.492;9.184;2024-01-11T07:57:35;40.88;;;18.77;;
1296;SDS011;641;48.492;9.184;2024-01-11T08:00:01;48.95;;;21.52;;
1296;SDS011;641;48.492;9.184;2024-01-11T08:02:28;42.92;;;21.08;;
1296;SDS011;641;48.492;9.184;2024-01-11T08:04:54;50.60;;;18.73;;
1296;SDS011;641;48.492;9.184;2024-01-11T08:07:19;42.13;;;19.27;;
1296;SDS011;641;48.492;9.184;2024-01-11T08:09:45;53.63;;;19.27;;
1296;SDS011;641;48.492;9.184;2024-01-11T08:12:11;44.83;;;18.27;;
1296;SDS011;641;48.492;9.184;2024-01-11T08:14:38;33.03;;;15.23;;
1296;SDS011;641;48.492;9.184;2024-01-11T08:17:03;42.30;;;20.57;;
1296;SDS011;641;48.492;9.184;2024-01-11T08:19:30;42.65;;;17.73;;
1296;SDS011;641;48.492;9.184;2024-01-11T08:21:56;31.90;;;17.52;;
1296;SDS011;641;48.492;9.184;2024-01-11T08:24:21;40.13;;;20.07;;
1296;SDS011;641;48.492;9.184;2024-01-11T08:26:47;48.10;;;19.67;;
1296;SDS011;641;48.492;9.184;2024-01-11T08:29:13;45.57;;;21.33;;
1296;SDS011;641;48.492;9.184;2024-01-11T08:31:39;41.85;;;17.35;;
1296;SDS011;641;48.492;9.184;2024-01-11T08:34:05;45.03;;;20.77;;
1296;SDS011;641;48.492;9.184;2024-01-11T08:36:31;49.50;;;21.53;;
1296;SDS011;641;48.492;9.184;2024-01-11T08:38:59;43.45;;;21.88;;
1296;SDS011;641;48.492;9.184;2024-01-11T08:41:27;55.28;;;27.05;;
1296;SDS011;641;48.492;9.184;2024-01-11T08:43:53;47.30;;;23.00;;
1296;SDS011;641;48.492;9.184;2024-01-11T08:46:28;45.73;;;22.77;;
1296;SDS011;641;48.492;9.184;2024-01-11T08:48:55;42.63;;;21.55;;
1296;SDS011;641;48.492;9.184;2024-01-11T08:51:21;44.75;;;20.15;;
1296;SDS011;641;48.492;9.184;2024-01-11T08:53:47;53.23;;;21.03;;
1296;SDS011;641;48.492;9.184;2024-01-11T08:56:13;52.97;;;21.63;;
1296;SDS011;641;48.492;9.184;2024-01-11T08:58:41;47.45;;;22.95;;
1296;SDS011;641;48.492;9.184;2024-01-11T09:01:06;55.10;;;24.90;;
1296;SDS011;641;48.492;9.184;2024-01-11T09:03:33;50.55;;;23.85;;
1296;SDS011;641;48.492;9.184;2024-01-11T09:06:02;46.65;;;21.10;;
1296;SDS011;641;48.492;9.184;2024-01-11T09:08:28;47.28;;;21.67;;
1296;SDS011;641;48.492;9.184;2024-01-11T09:10:55;56.75;;;25.60;;
1296;SDS011;641;48.492;9.184;2024-01-11T09:13:21;51.13;;;25.48;;
1296;SDS011;641;48.492;9.184;2024-01-11T09:15:46;47.30;;;23.53;;
1296;SDS011;641;48.492;9.184;2024-01-11T09:18:12;53.30;;;24.77;;
1296;SDS011;641;48.492;9.184;2024-01-11T09:20:38;50.47;;;25.20;;
1296;SDS011;641;48.492;9.184;2024-01-11T09:23:03;61.17;;;23.83;;
1296;SDS011;641;48.492;9.184;2024-01-11T09:25:30;55.97;;;27.65;;
1296;SDS011;641;48.492;9.184;2024-01-11T09:27:56;53.80;;;25.60;;
1296;SDS011;641;48.492;9.184;2024-01-11T09:30:22;56.33;;;26.17;;
1296;SDS011;641;48.492;9.184;2024-01-11T09:32:47;57.10;;;27.93;;
1296;SDS011;641;48.492;9.184;2024-01-11T09:35:13;52.50;;;26.50;;
1296;SDS011;641;48.492;9.184;2024-01-11T09:37:39;51.10;;;25.15;;
1296;SDS011;641;48.492;9.184;2024-01-11T09:40:05;54.80;;;24.57;;
1296;SDS011;641;48.492;9.184;2024-01-11T09:42:38;57.90;;;27.02;;
1296;SDS011;641;48.492;9.184;2024-01-11T09:45:08;52.05;;;25.95;;
1296;SDS011;641;48.492;9.184;2024-01-11T09:47:37;54.60;;;26.55;;
1296;SDS011;641;48.492;9.184;2024-01-11T09:50:04;55.10;;;28.65;;
1296;SDS011;641;48.492;9.184;2024-01-11T09:52:30;51.67;;;25.98;;
1296;SDS011;641;48.492;9.184;2024-01-11T09:54:57;63.40;;;28.27;;
1296;SDS011;641;48.492;9.184;2024-01-11T09:57:28;58.20;;;25.90;;
1296;SDS011;641;48.492;9.184;2024-01-11T09:59:56;58.13;;;26.35;;
1296;SDS011;641;48.492;9.184;2024-01-11T10:02:23;58.13;;;27.85;;
1296;SDS011;641;48.492;9.184;2024-01-11T10:04:51;58.47;;;28.67;;
1296;SDS011;641;48.492;9.184;2024-01-11T10:07:18;75.83;;;27.97;;
1296;SDS011;641;48.492;9.184;2024-01-11T10:09:47;61.75;;;30.88;;
1296;SDS011;641;48.492;9.184;2024-01-11T10:12:14;58.40;;;27.65;;
1296;SDS011;641;48.492;9.184;2024-01-11T10:14:40;65.90;;;28.65;;
1296;SDS011;641;48.492;9.184;2024-01-11T10:17:06;64.63;;;26.67;;
1296;SDS011;641;48.492;9.184;2024-01-11T10:19:32;61.70;;;27.90;;
1296;SDS011;641;48.492;9.184;2024-01-11T10:21:57;54.27;;;25.33;;
1296;SDS011;641;48.492;9.184;2024-01-11T10:24:26;65.22;;;28.92;;
1296;SDS011;641;48.492;9.184;2024-01-11T10:26:56;55.20;;;28.17;;
1296;SDS011;641;48.492;9.184;2024-01-11T10:29:27;64.78;;;31.13;;
1296;SDS011;641;48.492;9.184;2024-01-11T10:31:56;64.80;;;30.67;;
1296;SDS011;641;48.492;9.184;2024-01-11T10:34:22;66.27;;;28.33;;
1296;SDS011;641;48.492;9.184;2024-01-11T10:36:48;66.57;;;28.95;;
1296;SDS011;641;48.492;9.184;2024-01-11T10:39:15;71.90;;;29.70;;
1296;SDS011;641;48.492;9.184;2024-01-11T10:41:42;55.10;;;25.90;;
1296;SDS011;641;48.492;9.184;2024-01-11T10:44:21;53.55;;;28.52;;
1296;SDS011;641;48.492;9.184;2024-01-11T10:46:47;61.28;;;27.17;;
1296;SDS011;641;48.492;9.184;2024-01-11T10:49:18;60.88;;;28.92;;
1296;SDS011;641;48.492;9.184;2024-01-11T10:52:02;65.88;;;28.85;;
1296;SDS011;641;48.492;9.184;2024-01-11T10:54:31;67.85;;;31.85;;
1296;SDS011;641;48.492;9.184;2024-01-11T10:56:59;64.57;;;29.20;;
1296;SDS011;641;48.492;9.184;2024-01-11T10:59:28;72.18;;;33.85;;
1296;SDS011;641;48.492;9.184;2024-01-11T11:01:57;66.68;;;30.08;;
1296;SDS011;641;48.492;9.184;2024-01-11T11:04:27;65.72;;;29.38;;
1296;SDS011;641;48.492;9.184;2024-01-11T11:06:55;55.05;;;28.60;;
1296;SDS011;641;48.492;9.184;2024-01-11T11:09:22;57.97;;;28.60;;
1296;SDS011;641;48.492;9.184;2024-01-11T11:11:49;61.22;;;31.02;;
1296;SDS011;641;48.492;9.184;2024-01-11T11:14:14;63.23;;;30.30;;
1296;SDS011;641;48.492;9.184;2024-01-11T11:16:40;63.17;;;30.80;;
1296;SDS011;641;48.492;9.184;2024-01-11T11:19:07;59.97;;;28.88;;
1296;SDS011;641;48.492;9.184;2024-01-11T11:21:41;56.72;;;27.23;;
1296;SDS011;641;48.492;9.184;2024-01-11T11:24:07;63.15;;;30.42;;
1296;SDS011;641;48.492;9.184;2024-01-11T11:26:33;62.95;;;28.67;;
1296;SDS011;641;48.492;9.184;2024-01-11T11:29:00;66.90;;;31.30;;
1296;SDS011;641;48.492;9.184;2024-01-11T11:31:41;62.03;;;28.80;;
1296;SDS011;641;48.492;9.184;2024-01-11T11:34:11;58.92;;;28.15;;
1296;SDS011;641;48.492;9.184;2024-01-11T11:36:39;69.60;;;31.17;;
1296;SDS011;641;48.492;9.184;2024-01-11T11:39:06;58.75;;;29.45;;
1296;SDS011;641;48.492;9.184;2024-01-11T11:41:38;57.97;;;29.70;;
1296;SDS011;641;48.492;9.184;2024-01-11T11:44:04;65.95;;;31.33;;
1296;SDS011;641;48.492;9.184;2024-01-11T11:46:31;61.30;;;30.25;;
1296;SDS011;641;48.492;9.184;2024-01-11T11:48:58;58.30;;;29.10;;
1296;SDS011;641;48.492;9.184;2024-01-11T11:51:24;61.33;;;28.65;;
1296;SDS011;641;48.492;9.184;2024-01-11T11:53:50;68.50;;;32.95;;
1296;SDS011;641;48.492;9.184;2024-01-11T11:56:18;64.82;;;29.20;;
1296;SDS011;641;48.492;9.184;2024-01-11T11:58:45;64.13;;;32.88;;
1296;SDS011;641;48.492;9.184;2024-01-11T12:01:12;58.95;;;28.48;;
1296;SDS011;641;48.492;9.184;2024-01-11T12:03:45;64.43;;;31.00;;
1296;SDS011;641;48.492;9.184;2024-01-11T12:06:14;70.03;;;33.28;;
1296;SDS011;641;48.492;9.184;2024-01-11T12:08:41;65.28;;;32.20;;
1296;SDS011;641;48.492;9.184;2024-01-11T12:11:08;54.03;;;28.17;;
1296;SDS011;641;48.492;9.184;2024-01-11T12:13:34;68.65;;;30.70;;
1296;SDS011;641;48.492;9.184;2024-01-11T12:16:00;63.05;;;29.17;;
1296;SDS011;641;48.492;9.184;2024-01-11T12:18:26;67.23;;;30.80;;
1296;SDS011;641;48.492;9.184;2024-01-11T12:20:51;63.27;;;29.90;;
1296;SDS011;641;48.492;9.184;2024-01-11T12:23:20;64.07;;;30.98;;
1296;SDS011;641;48.492;9.184;2024-01-11T12:25:45;69.23;;;33.23;;
1296;SDS011;641;48.492;9.184;2024-01-11T12:28:12;64.72;;;32.75;;
1296;SDS011;641;48.492;9.184;2024-01-11T12:30:37;68.53;;;33.97;;
1296;SDS011;641;48.492;9.184;2024-01-11T12:33:03;72.07;;;34.37;;
1296;SDS011;641;48.492;9.184;2024-01-11T12:35:30;69.43;;;33.35;;
1296;SDS011;641;48.492;9.184;2024-01-11T12:37:59;75.40;;;32.80;;
1296;SDS011;641;48.492;9.184;2024-01-11T12:40:27;67.15;;;32.75;;
1296;SDS011;641;48.492;9.184;2024-01-11T12:42:56;73.25;;;33.92;;
1296;SDS011;641;48.492;9.184;2024-01-11T12:45:23;63.85;;;31.10;;
1296;SDS011;641;48.492;9.184;2024-01-11T12:47:51;71.05;;;33.10;;
1296;SDS011;641;48.492;9.184;2024-01-11T12:50:17;68.35;;;31.17;;
1296;SDS011;641;48.492;9.184;2024-01-11T12:52:42;75.10;;;34.67;;
1296;SDS011;641;48.492;9.184;2024-01-11T12:55:17;68.07;;;34.00;;
1296;SDS011;641;48.492;9.184;2024-01-11T12:57:43;67.22;;;30.95;;
1296;SDS011;641;48.492;9.184;2024-01-11T13:00:12;75.13;;;34.50;;
1296;SDS011;641;48.492;9.184;2024-01-11T13:02:39;60.20;;;31.90;;
1296;SDS011;641;48.492;9.184;2024-01-11T13:05:05;75.63;;;34.55;;
1296;SDS011;641;48.492;9.184;2024-01-11T13:07:34;68.45;;;32.95;;
1296;SDS011;641;48.492;9.184;2024-01-11T13:10:01;62.63;;;33.33;;
1296;SDS011;641;48.492;9.184;2024-01-11T13:12:28;75.63;;;34.58;;
1296;SDS011;641;48.492;9.184;2024-01-11T13:14:54;68.47;;;34.60;;
1296;SDS011;641;48.492;9.184;2024-01-11T13:17:20;61.88;;;31.35;;
1296;SDS011;641;48.492;9.184;2024-01-11T13:19:46;64.63;;;32.07;;
1296;SDS011;641;48.492;9.184;2024-01-11T13:22:12;71.70;;;32.73;;
1296;SDS011;641;48.492;9.184;2024-01-11T13:24:38;73.77;;;35.17;;
1296;SDS011;641;48.492;9.184;2024-01-11T13:27:03;67.80;;;33.30;;
1296;SDS011;641;48.492;9.184;2024-01-11T13:29:29;68.20;;;31.17;;
1296;SDS011;641;48.492;9.184;2024-01-11T13:31:55;70.33;;;34.13;;
1296;SDS011;641;48.492;9.184;2024-01-11T13:34:20;67.40;;;31.20;;
1296;SDS011;641;48.492;9.184;2024-01-11T13:36:46;68.37;;;33.00;;
1296;SDS011;641;48.492;9.184;2024-01-11T13:39:11;70.77;;;33.13;;
1296;SDS011;641;48.492;9.184;2024-01-11T13:41:37;63.17;;;32.57;;
1296;SDS011;641;48.492;9.184;2024-01-11T13:44:02;69.27;;;35.03;;
1296;SDS011;641;48.492;9.184;2024-01-11T13:46:31;66.07;;;29.85;;
1296;SDS011;641;48.492;9.184;2024-01-11T13:48:57;63.78;;;31.38;;
1296;SDS011;641;48.492;9.184;2024-01-11T13:51:23;69.53;;;33.35;;
1296;SDS011;641;48.492;9.184;2024-01-11T13:53:49;59.80;;;31.00;;
1296;SDS011;641;48.492;9.184;2024-01-11T13:56:14;66.77;;;33.27;;
1296;SDS011;641;48.492;9.184;2024-01-11T13:58:40;67.00;;;31.00;;
1296;SDS011;641;48.492;9.184;2024-01-11T14:01:05;71.73;;;31.93;;
1296;SDS011;641;48.492;9.184;2024-01-11T14:03:32;61.63;;;32.08;;
1296;SDS011;641;48.492;9.184;2024-01-11T14:05:58;62.40;;;32.60;;
1296;SDS011;641;48.492;9.184;2024-01-11T14:08:25;59.72;;;31.83;;
1296;SDS011;641;48.492;9.184;2024-01-11T14:10:50;68.57;;;31.67;;
1296;SDS011;641;48.492;9.184;2024-01-11T14:13:16;68.17;;;31.63;;
1296;SDS011;641;48.492;9.184;2024-01-11T14:15:41;64.57;;;31.37;;
1296;SDS011;641;48.492;9.184;2024-01-11T14:18:07;65.20;;;33.47;;
1296;SDS011;641;48.492;9.184;2024-01-11T14:20:34;65.53;;;34.25;;
1296;SDS011;641;48.492;9.184;2024-01-11T14:23:00;60.33;;;33.30;;
1296;SDS011;641;48.492;9.184;2024-01-11T14:25:25;62.30;;;30.23;;
1296;SDS011;641;48.492;9.184;2024-01-11T14:27:51;55.73;;;30.87;;
1296;SDS011;641;48.492;9.184;2024-01-11T14:30:17;67.63;;;31.08;;
1296;SDS011;641;48.492;9.184;2024-01-11T14:32:43;62.07;;;30.77;;
1296;SDS011;641;48.492;9.184;2024-01-11T14:35:10;57.80;;;31.58;;
1296;SDS011;641;48.492;9.184;2024-01-11T14:37:36;63.97;;;32.50;;
1296;SDS011;641;48.492;9.184;2024-01-11T14:40:04;65.20;;;35.20;;
1296;SDS011;641;48.492;9.184;2024-01-11T14:42:30;62.97;;;33.15;;
1296;SDS011;641;48.492;9.184;2024-01-11T14:44:56;67.67;;;33.03;;
1296;SDS011;641;48.492;9.184;2024-01-11T14:47:22;67.03;;;31.87;;
1296;SDS011;641;48.492;9.184;2024-01-11T14:49:48;62.13;;;31.20;;
1296;SDS011;641;48.492;9.184;2024-01-11T14:52:13;68.07;;;33.77;;
1296;SDS011;641;48.492;9.184;2024-01-11T14:54:39;74.17;;;34.97;;